Sagehen Creek Weather observations

Data are for observation ending at time listed.
 Day   Time    Ave.   Ave.  Ave.  Vector   Max.   Stn.    Total    Solar   Ave.  
  of    of     Air    Rel.  Wind   Wind    Wind   Baro.  Precip.   Rad.    Soil  
Year   Day     Temp.  Hum.  Speed  Dir.    Gust   Pres.                    Temp. 
2014   (PST)    F      %     mph   deg.    mph     mb.     in.     W/m2     F   
------------------------------------------------------------------------------
 303    0:10   28.0    92    1.0   278      1.3   838.5   14.06       0    999.0
 303    0:20   27.9    92    0.9   268      1.2   838.6   14.06       0    999.0
 303    0:30   27.8    92    0.8   268      1.4   838.7   14.06       0    999.0
 303    0:40   27.8    92    0.7   278      1.3   838.9   14.06       0    999.0
 303    0:50   27.6    93    0.9   273      1.3   838.7   14.06       0    999.0
 303    1:00   27.5    93    0.9   276      1.6   838.4   14.06       0    999.0
 303    1:10   27.4    93    0.7   263      1.4   838.6   14.06       0    999.0
 303    1:20   27.3    93    0.8   275      1.1   838.6   14.06       0    999.0
 303    1:30   27.3    93    0.8   262      1.2   838.7   14.06       0    999.0
 303    1:40   27.2    93    0.6   275      1.3   838.4   14.06       0    999.0
 303    1:50   27.2    93    0.6   269      1.7   838.5   14.06       0    999.0
 303    2:00   27.2    93    0.7   274      1.3   838.5   14.06       0    999.0
 303    2:10   27.2    93    0.7   274      1.4   838.6   14.06       0    999.0
 303    2:20   27.2    93    0.6   263      1.1   838.3   14.06       0    999.0
 303    2:30   27.1    93    0.9   277      1.3   838.1   14.06       0    999.0
 303    2:40   27.1    93    0.7   274      1.3   838.1   14.06       0    999.0
 303    2:50   27.1    93    0.8   266      1.3   838.0   14.06       0    999.0
 303    3:00   27.0    93    0.5   278      1.3   838.0   14.06       0    999.0
 303    3:10   27.0    93    0.8   278      1.2   837.9   14.06       0    999.0
 303    3:20   27.0    94    0.7   275      1.3   837.8   14.06       0    999.0
 303    3:30   27.0    94    0.6   273      1.2   837.7   14.06       0    999.0
 303    3:40   27.0    93    0.4   269      0.9   838.1   14.06       0    999.0
 303    3:50   27.0    93    0.5   273      1.1   838.0   14.06       0    999.0
 303    4:00   26.9    94    0.7   266      0.9   837.9   14.06       0    999.0
 303    4:10   26.9    94    0.4   268      1.1   837.5   14.06       0    999.0
 303    4:20   26.9    94    0.5   281      1.0   837.7   14.06       0    999.0
 303    4:30   26.7    94    0.3   268      1.0   837.8   14.06       0    999.0
 303    4:40   28.1    70    0.6   266      0.9     0.0   14.06       0    999.0
 303    4:50   26.7    94    0.3   262      1.0   432.8   14.06       0    999.0
 303    5:00   26.7    94    0.1   268      0.7   837.7   14.06       0    999.0
 303    5:10   26.6    94    0.2   267      0.9   837.8   14.06       0    999.0
 303    5:20   26.6    94    0.5   265      1.1   837.6   14.06       0    999.0
 303    5:30   26.6    94    0.0   303      0.7   837.4   14.06       0    999.0
 303    5:40   26.6    94    0.5   284      1.2   837.3   14.06       0    999.0
 303    5:50   26.6    94    0.2   291      1.0   837.6   14.06       0    999.0
 303    6:00   26.5    94    0.3   258      1.0   837.8   14.06       0    999.0
 303    6:10   26.6    94    0.4   265      1.2   837.3   14.06       0    999.0
 303    6:20   26.5    94    0.2   275      1.1   837.2   14.06       2    999.0
 303    6:30   26.5    94    0.4   280      0.9   837.2   14.06       3    999.0
 303    6:40   26.6    94    0.3   281      0.9   837.8   14.06       5    999.0
 303    6:50   26.7    94    0.5   276      0.9   837.8   14.06       8    999.0
 303    7:00   27.0    94    0.2   301      1.3   837.8   14.06      11    999.0
 303    7:10   27.2    93    0.1   275      0.8   837.7   14.06      20    999.0
 303    7:20   27.6    93    0.3   274      1.1   837.8   14.06      41    999.0
 303    7:30   28.1    93    0.4   271      1.0   837.9   14.06      56    999.0
 303    7:40   28.7    93    0.1   284      0.8   837.7   14.06      48    999.0
 303    7:50   29.1    93    0.5   280      1.1   837.7   14.06      52    999.0
 303    8:00   29.7    93    0.2   286      0.6   837.7   14.06      55    999.0
 303    8:10   30.2    92    0.2   273      1.1   837.8   14.06      69    999.0
 303    8:20   30.9    92    0.5   273      1.4   837.9   14.06      89    999.0
 303    8:30   31.6    92    0.2   287      0.8   838.0   14.06     100    999.0
 303    8:40   32.5    91    0.1   267      0.7   837.5   14.06     114    999.0
 303    8:50   33.4    91    0.1   256      1.1   837.7   14.06     124    999.0
 303    9:00   34.5    91    0.1   259      1.0   837.8   14.06     133    999.0
 303    9:10   35.8    90    0.1   249      1.0   837.7   14.06     162    999.0
 303    9:20   37.4    89    0.2    89      1.2   837.4   14.06     157    999.0
 303    9:30   38.7    87    0.2   309      1.2   837.2   14.06     173    999.0
 303    9:40   40.3    86    0.1   242      1.0   837.7   14.06     234    999.0
 303    9:50   42.7    82    0.1   160      0.8   837.5   14.06     243    999.0
 303   10:00   44.5    76    0.3   163      1.0   837.4   14.06     175    999.0
 303   10:10   45.1    74    1.0    92      3.2   837.3   14.06     159    999.0
 303   10:20   45.3    75    0.9   103      2.4   837.3   14.06     172    999.0
 303   10:30   46.3    74    0.8   215      2.2   837.3   14.06     229    999.0
 303   10:40   47.9    69    1.2    95      4.3   836.9   14.06     267    999.0
 303   10:50   49.4    62    1.0    94      3.5   837.1   14.06     268    999.0
 303   11:00   50.6    56    2.5    96      5.1   837.3   14.06     283    999.0
 303   11:10   51.3    56    2.0    94      4.4   836.6   14.06     217    999.0
 303   11:20   51.8    58    1.7    76      4.0   836.8   14.06     228    999.0
 303   11:30   52.7    53    1.6    69      3.8   836.9   14.06     260    999.0
 303   11:40   53.2    52    2.5    91      5.3   836.6   14.06     271    999.0
 303   11:50   54.3    51    3.4    89      7.3   836.6   14.05     438    999.0
 303   12:00   55.9    45    4.4    80      8.2   836.5   14.05     533    999.0
 303   12:10   58.2    40    3.0    96      5.8   836.3   14.05     410    999.0
 303   12:20   58.2    40    2.7    89      5.6   836.3   14.05     306    999.0
 303   12:30   57.9    40    3.1    92      5.3   836.2   14.05     334    999.0
 303   12:40   58.8    34    3.7    91      6.4   835.7   14.05     396    999.0
 303   12:50   59.3    34    2.0    84      4.6   835.7   14.05     310    999.0
 303   13:00   59.5    34    2.5    90      5.1   835.8   14.05     239    999.0
 303   13:10   59.1    34    2.3    75      6.7   835.6   14.05     257    999.0
 303   13:20   59.3    34    2.6    82      5.4   835.5   14.05     260    999.0
 303   13:30   59.7    35    1.7    79      4.0   835.4   14.05     241    999.0
 303   13:40   60.2    31    2.0   178      5.2   835.3   14.05     208    999.0
 303   13:50   61.1    28    1.9     8      5.7   835.1   14.05     199    999.0
 303   14:00   61.3    26    1.7   173      9.2   834.9   14.05     186    999.0
 303   14:10   60.4    26    1.3   236      3.0     0.0   14.05     324    999.0
 303   14:20   62.4    26    1.8   174      5.0   431.5   14.05     346    999.0
 303   14:30   63.1    23    1.7   156      4.6   835.2   14.05     445    999.0
 303   14:40   63.6    24    2.2   280      6.2   835.0   14.05     298    999.0
 303   14:50   61.9    25    1.6   348      4.8   835.1   14.05     248    999.0
 303   15:00   61.4    25    2.1   117      4.9   835.2   14.05     181    999.0
 303   15:10   60.6    25    2.9   119      8.1   834.7   14.05      83    999.0
 303   15:20   59.4    26    2.2   127      5.3   834.7   14.05      53    999.0
 303   15:30   59.1    26    2.8   103      5.9   834.6   14.05      81    999.0
 303   15:40   59.8    25    1.2   146      3.8   834.7   14.05      82    999.0
 303   15:50   59.8    25    1.9   207      5.8   834.9   14.05      83    999.0
 303   16:00   59.5    27    1.9   264      6.7   835.0   14.05      66    999.0
 303   16:10   58.1    30    1.7   262      5.3   834.6   14.05      43    999.0
 303   16:20   57.1    29    2.7   271      5.4   834.8   14.05      38    999.0
 303   16:30   56.7    30    2.2   268      4.4   835.0   14.05      30    999.0
 303   16:40   55.9    31    1.8   269      6.3   834.8   14.05      13    999.0
 303   16:50   55.0    33    1.7   201      4.7   834.7   14.06       8    999.0
 303   17:00   54.1    34    1.7   266      4.2   834.6   14.05       5    999.0
 303   17:10   53.5    37    1.4   265      3.0   834.6   14.06       1    999.0
 303   17:20   52.8    37    1.3   257      3.4   834.7   14.06       0    999.0
 303   17:30   52.0    41    2.0   263      4.0   834.7   14.06       0    999.0
 303   17:40   50.1    46    1.4   267      3.4   834.5   14.06       0    999.0
 303   17:50   49.3    48    1.4   269      2.6   834.6   14.06       0    999.0
 303   18:00   48.8    49    1.5   249      2.8   834.7   14.06       0    999.0
 303   18:10   44.9    43    1.3   247      2.8     0.0   14.06       0    999.0
 303   18:20   48.3    50    2.3   264      5.2   431.3   14.06       0    999.0
 303   18:30   48.3    50    1.7   251      2.9   834.7   14.06       0    999.0
 303   18:40   49.4    45    1.3   267      3.3   834.9   14.06       0    999.0
 303   18:50   50.3    42    2.5   291      5.2   834.7   14.06       0    999.0
 303   19:00   52.0    38    2.6   289      7.7   834.4   14.06       0    999.0
 303   19:10   52.0    37    1.6   203      4.7   834.8   14.06       0    999.0
 303   19:20   51.9    37    1.7   146      4.9   834.8   14.06       0    999.0
 303   19:30   51.3    38    1.6   250      3.5   834.7   14.06       0    999.0
 303   19:40   49.6    45    1.3   248      5.1   834.7   14.06       0    999.0
 303   19:50   47.6    51    1.4   259      2.5   834.6   14.06       0    999.0
 303   20:00   45.9    53    1.5   287      2.7   834.5   14.06       0    999.0
 303   20:10   45.9    52    1.7   282      5.3   834.4   14.06       0    999.0
 303   20:20   45.0    55    1.8   281      3.7   834.3   14.06       0    999.0
 303   20:30   44.5    57    1.6   274      4.6   834.2   14.06       0    999.0
 303   20:40   46.1    50    3.0   284      5.9   834.2   14.06       0    999.0
 303   20:50   48.6    43    1.5   246      3.0   834.4   14.05       0    999.0
 303   21:00   49.0    42    2.2   282      4.6   834.6   14.06       0    999.0
 303   21:10   50.8    37    2.4   292      7.9   834.0   14.06       0    999.0
 303   21:20   51.1    36    2.9   302      8.4   834.3   14.05       0    999.0
 303   21:30   51.0    36    2.7   292      6.1   834.5   14.05       0    999.0
 303   21:40   50.6    37    1.9   266      5.3   834.2   14.05       0    999.0
 303   21:50   50.3    38    2.3   275      5.3   834.2   14.05       0    999.0
 303   22:00   50.2    38    1.9   264      6.0   834.2   14.05       0    999.0
 303   22:10   50.1    37    2.7   286      5.7   834.2   14.05       0    999.0
 303   22:20   50.4    35    1.7   315      4.5   834.0   14.05       0    999.0
 303   22:30   50.1    36    2.2   283      8.2   833.9   14.05       0    999.0
 303   22:40   50.0    36    1.5    99      5.3   833.7   14.05       0    999.0
 303   22:50   49.8    36    2.3   104      6.1   833.6   14.05       0    999.0
 303   23:00   49.6    37    1.5    89      4.1   833.5   14.05       0    999.0
 303   23:10   48.3    41    1.2   303      4.3   833.9   14.05       0    999.0
 303   23:20   47.7    41    2.3   300      9.4   833.8   14.05       0    999.0
 303   23:30   49.0    37    2.4   213     12.4   833.6   14.05       0    999.0
 303   23:40   48.9    37    2.4   181      7.8   833.6   14.05       0    999.0
 303   23:50   49.0    37    1.8    37      9.6   833.5   14.06       0    999.0
 304    0:00   48.7    38    2.1   248      5.4   833.4   14.06       0    999.0

Return to Sagehen Creek graphs page.


Western Regional Climate Center,wrcc@dri.edu